sensor_id;sensor_type;location;lat;lon;timestamp;temperature;humidity
21001;DHT22;10658;50.920;12.238;2022-09-06T00:03:16;19.50;99.90
21001;DHT22;10658;50.920;12.238;2022-09-06T00:07:18;19.50;99.90
21001;DHT22;10658;50.920;12.238;2022-09-06T00:11:20;19.40;99.90
21001;DHT22;10658;50.920;12.238;2022-09-06T00:15:21;19.30;99.90
21001;DHT22;10658;50.920;12.238;2022-09-06T00:19:22;19.10;99.90
21001;DHT22;10658;50.920;12.238;2022-09-06T00:23:24;19.10;99.90
21001;DHT22;10658;50.920;12.238;2022-09-06T00:27:25;19.10;99.90
21001;DHT22;10658;50.920;12.238;2022-09-06T00:31:28;19.20;99.90
21001;DHT22;10658;50.920;12.238;2022-09-06T00:35:30;19.30;99.90
21001;DHT22;10658;50.920;12.238;2022-09-06T00:39:31;19.30;99.90
21001;DHT22;10658;50.920;12.238;2022-09-06T00:43:32;19.30;99.90
21001;DHT22;10658;50.920;12.238;2022-09-06T00:47:35;19.20;99.90
21001;DHT22;10658;50.920;12.238;2022-09-06T00:51:39;19.30;99.90
21001;DHT22;10658;50.920;12.238;2022-09-06T00:55:41;19.10;99.90
21001;DHT22;10658;50.920;12.238;2022-09-06T00:59:45;19.10;99.90
21001;DHT22;10658;50.920;12.238;2022-09-06T01:03:46;19.00;99.90
21001;DHT22;10658;50.920;12.238;2022-09-06T01:12:09;19.10;99.90
21001;DHT22;10658;50.920;12.238;2022-09-06T01:29:38;18.60;99.90
21001;DHT22;10658;50.920;12.238;2022-09-06T01:38:05;18.80;99.90
21001;DHT22;10658;50.920;12.238;2022-09-06T01:42:24;18.90;99.90
21001;DHT22;10658;50.920;12.238;2022-09-06T01:46:33;18.90;99.90
21001;DHT22;10658;50.920;12.238;2022-09-06T02:03:42;19.00;99.90
21001;DHT22;10658;50.920;12.238;2022-09-06T02:07:48;19.00;99.90
21001;DHT22;10658;50.920;12.238;2022-09-06T02:11:58;19.10;99.90
21001;DHT22;10658;50.920;12.238;2022-09-06T02:16:02;19.10;99.90
21001;DHT22;10658;50.920;12.238;2022-09-06T02:20:20;18.90;99.90
21001;DHT22;10658;50.920;12.238;2022-09-06T02:24:27;18.80;99.90
21001;DHT22;10658;50.920;12.238;2022-09-06T02:28:30;18.70;99.90
21001;DHT22;10658;50.920;12.238;2022-09-06T02:32:36;18.70;99.90
21001;DHT22;10658;50.920;12.238;2022-09-06T02:36:38;18.70;99.90
21001;DHT22;10658;50.920;12.238;2022-09-06T02:40:40;18.60;99.90
21001;DHT22;10658;50.920;12.238;2022-09-06T02:44:43;18.50;99.90
21001;DHT22;10658;50.920;12.238;2022-09-06T02:48:44;18.50;99.90
21001;DHT22;10658;50.920;12.238;2022-09-06T02:53:12;18.40;99.90
21001;DHT22;10658;50.920;12.238;2022-09-06T02:57:14;18.30;99.90
21001;DHT22;10658;50.920;12.238;2022-09-06T03:01:15;18.30;99.90
21001;DHT22;10658;50.920;12.238;2022-09-06T03:05:16;18.30;99.90
21001;DHT22;10658;50.920;12.238;2022-09-06T03:09:17;18.20;99.90
21001;DHT22;10658;50.920;12.238;2022-09-06T03:13:18;18.20;99.90
21001;DHT22;10658;50.920;12.238;2022-09-06T03:17:19;18.20;99.90
21001;DHT22;10658;50.920;12.238;2022-09-06T03:21:20;18.00;99.90
21001;DHT22;10658;50.920;12.238;2022-09-06T03:25:22;17.90;99.90
21001;DHT22;10658;50.920;12.238;2022-09-06T03:29:23;17.90;99.90
21001;DHT22;10658;50.920;12.238;2022-09-06T03:33:25;17.80;99.90
21001;DHT22;10658;50.920;12.238;2022-09-06T03:37:26;17.70;99.90
21001;DHT22;10658;50.920;12.238;2022-09-06T03:41:28;17.70;99.90
21001;DHT22;10658;50.920;12.238;2022-09-06T03:45:30;17.60;99.90
21001;DHT22;10658;50.920;12.238;2022-09-06T03:49:31;17.50;99.90
21001;DHT22;10658;50.920;12.238;2022-09-06T03:53:33;17.40;99.90
21001;DHT22;10658;50.920;12.238;2022-09-06T03:57:34;17.50;99.90
21001;DHT22;10658;50.920;12.238;2022-09-06T04:01:36;17.60;99.90
21001;DHT22;10658;50.920;12.238;2022-09-06T04:05:37;17.70;99.90
21001;DHT22;10658;50.920;12.238;2022-09-06T04:09:39;17.80;99.90
21001;DHT22;10658;50.920;12.238;2022-09-06T04:13:40;17.80;99.90
21001;DHT22;10658;50.920;12.238;2022-09-06T04:17:45;17.80;99.90
21001;DHT22;10658;50.920;12.238;2022-09-06T04:21:47;17.80;99.90
21001;DHT22;10658;50.920;12.238;2022-09-06T04:25:51;17.70;99.90
21001;DHT22;10658;50.920;12.238;2022-09-06T04:29:55;17.70;99.90
21001;DHT22;10658;50.920;12.238;2022-09-06T04:33:56;17.70;99.90
21001;DHT22;10658;50.920;12.238;2022-09-06T04:38:02;17.80;99.90
21001;DHT22;10658;50.920;12.238;2022-09-06T04:42:04;17.90;99.90
21001;DHT22;10658;50.920;12.238;2022-09-06T04:46:10;18.00;99.90
21001;DHT22;10658;50.920;12.238;2022-09-06T04:50:12;18.00;99.90
21001;DHT22;10658;50.920;12.238;2022-09-06T04:54:14;18.00;99.90
21001;DHT22;10658;50.920;12.238;2022-09-06T04:58:17;18.10;99.90
21001;DHT22;10658;50.920;12.238;2022-09-06T05:02:18;18.10;99.90
21001;DHT22;10658;50.920;12.238;2022-09-06T05:06:22;18.10;99.90
21001;DHT22;10658;50.920;12.238;2022-09-06T05:10:23;18.10;99.90
21001;DHT22;10658;50.920;12.238;2022-09-06T05:14:26;18.20;99.90
21001;DHT22;10658;50.920;12.238;2022-09-06T05:18:28;18.30;99.90
21001;DHT22;10658;50.920;12.238;2022-09-06T05:22:30;18.40;99.90
21001;DHT22;10658;50.920;12.238;2022-09-06T05:26:33;18.40;99.90
21001;DHT22;10658;50.920;12.238;2022-09-06T05:30:34;18.40;99.90
21001;DHT22;10658;50.920;12.238;2022-09-06T05:34:35;18.50;99.90
21001;DHT22;10658;50.920;12.238;2022-09-06T05:38:37;18.50;99.90
21001;DHT22;10658;50.920;12.238;2022-09-06T05:42:38;18.50;99.90
21001;DHT22;10658;50.920;12.238;2022-09-06T05:46:42;18.60;99.90
21001;DHT22;10658;50.920;12.238;2022-09-06T05:50:46;18.60;99.90
21001;DHT22;10658;50.920;12.238;2022-09-06T05:54:47;18.70;99.90
21001;DHT22;10658;50.920;12.238;2022-09-06T05:58:48;18.80;99.90
21001;DHT22;10658;50.920;12.238;2022-09-06T06:02:50;18.80;99.90
21001;DHT22;10658;50.920;12.238;2022-09-06T06:06:52;18.80;99.90
21001;DHT22;10658;50.920;12.238;2022-09-06T06:10:58;18.90;99.90
21001;DHT22;10658;50.920;12.238;2022-09-06T06:15:00;18.90;99.90
21001;DHT22;10658;50.920;12.238;2022-09-06T06:19:01;18.80;99.90
21001;DHT22;10658;50.920;12.238;2022-09-06T06:23:03;18.90;99.90
21001;DHT22;10658;50.920;12.238;2022-09-06T06:27:05;19.10;99.90
21001;DHT22;10658;50.920;12.238;2022-09-06T06:31:09;19.20;99.90
21001;DHT22;10658;50.920;12.238;2022-09-06T06:35:11;19.40;99.90
21001;DHT22;10658;50.920;12.238;2022-09-06T06:39:13;19.50;99.90
21001;DHT22;10658;50.920;12.238;2022-09-06T06:43:14;19.70;99.90
21001;DHT22;10658;50.920;12.238;2022-09-06T06:51:42;20.00;99.90
21001;DHT22;10658;50.920;12.238;2022-09-06T06:55:49;20.10;99.90
21001;DHT22;10658;50.920;12.238;2022-09-06T06:59:51;20.20;99.90
21001;DHT22;10658;50.920;12.238;2022-09-06T07:03:53;20.40;99.90
21001;DHT22;10658;50.920;12.238;2022-09-06T07:07:54;20.80;99.90
21001;DHT22;10658;50.920;12.238;2022-09-06T07:11:56;21.10;99.90
21001;DHT22;10658;50.920;12.238;2022-09-06T07:16:15;21.20;99.90
21001;DHT22;10658;50.920;12.238;2022-09-06T07:20:18;21.20;99.90
21001;DHT22;10658;50.920;12.238;2022-09-06T07:24:20;21.30;99.90
21001;DHT22;10658;50.920;12.238;2022-09-06T07:28:21;21.40;99.90
21001;DHT22;10658;50.920;12.238;2022-09-06T07:32:23;21.70;99.90
21001;DHT22;10658;50.920;12.238;2022-09-06T07:36:25;21.80;99.90
21001;DHT22;10658;50.920;12.238;2022-09-06T07:40:29;22.10;99.90
21001;DHT22;10658;50.920;12.238;2022-09-06T07:44:31;22.10;99.90
21001;DHT22;10658;50.920;12.238;2022-09-06T07:48:35;22.20;99.90
21001;DHT22;10658;50.920;12.238;2022-09-06T07:52:36;22.30;99.90
21001;DHT22;10658;50.920;12.238;2022-09-06T07:56:37;22.40;99.90
21001;DHT22;10658;50.920;12.238;2022-09-06T08:00:38;22.70;99.90
21001;DHT22;10658;50.920;12.238;2022-09-06T08:04:41;23.10;99.90
21001;DHT22;10658;50.920;12.238;2022-09-06T08:08:43;23.20;99.90
21001;DHT22;10658;50.920;12.238;2022-09-06T08:12:44;23.30;99.90
21001;DHT22;10658;50.920;12.238;2022-09-06T08:16:46;24.10;99.90
21001;DHT22;10658;50.920;12.238;2022-09-06T08:20:47;24.70;99.90
21001;DHT22;10658;50.920;12.238;2022-09-06T08:24:48;24.90;99.90
21001;DHT22;10658;50.920;12.238;2022-09-06T08:29:08;24.80;99.90
21001;DHT22;10658;50.920;12.238;2022-09-06T08:33:11;24.70;99.90
21001;DHT22;10658;50.920;12.238;2022-09-06T08:37:11;24.40;99.90
21001;DHT22;10658;50.920;12.238;2022-09-06T08:41:18;24.20;99.90
21001;DHT22;10658;50.920;12.238;2022-09-06T08:45:21;24.00;99.90
21001;DHT22;10658;50.920;12.238;2022-09-06T08:49:36;24.00;99.90
21001;DHT22;10658;50.920;12.238;2022-09-06T08:53:43;24.20;99.90
21001;DHT22;10658;50.920;12.238;2022-09-06T08:58:28;24.20;99.90
21001;DHT22;10658;50.920;12.238;2022-09-06T09:02:20;24.20;99.90
21001;DHT22;10658;50.920;12.238;2022-09-06T09:06:22;24.10;99.90
21001;DHT22;10658;50.920;12.238;2022-09-06T09:14:45;24.20;99.90
21001;DHT22;10658;50.920;12.238;2022-09-06T09:18:55;24.20;99.90
21001;DHT22;10658;50.920;12.238;2022-09-06T09:22:57;24.10;99.90
21001;DHT22;10658;50.920;12.238;2022-09-06T09:27:08;24.10;99.90
21001;DHT22;10658;50.920;12.238;2022-09-06T09:31:11;24.10;99.90
21001;DHT22;10658;50.920;12.238;2022-09-06T09:35:30;24.30;99.90
21001;DHT22;10658;50.920;12.238;2022-09-06T09:39:54;24.40;99.90
21001;DHT22;10658;50.920;12.238;2022-09-06T09:54:49;25.40;99.90
21001;DHT22;10658;50.920;12.238;2022-09-06T10:04:48;25.00;99.90
21001;DHT22;10658;50.920;12.238;2022-09-06T10:29:38;23.10;99.90
21001;DHT22;10658;50.920;12.238;2022-09-06T10:42:38;22.30;99.90
21001;DHT22;10658;50.920;12.238;2022-09-06T10:46:44;22.00;99.90
21001;DHT22;10658;50.920;12.238;2022-09-06T10:51:03;21.70;99.90
21001;DHT22;10658;50.920;12.238;2022-09-06T10:55:08;21.40;99.90
21001;DHT22;10658;50.920;12.238;2022-09-06T10:59:27;21.00;99.90
21001;DHT22;10658;50.920;12.238;2022-09-06T11:03:36;20.70;99.90
21001;DHT22;10658;50.920;12.238;2022-09-06T11:07:45;20.50;99.90
21001;DHT22;10658;50.920;12.238;2022-09-06T11:16:24;20.10;99.90
21001;DHT22;10658;50.920;12.238;2022-09-06T11:20:40;19.90;99.90
21001;DHT22;10658;50.920;12.238;2022-09-06T11:24:51;19.80;99.90
21001;DHT22;10658;50.920;12.238;2022-09-06T11:28:59;19.70;99.90
21001;DHT22;10658;50.920;12.238;2022-09-06T11:33:30;19.80;99.90
21001;DHT22;10658;50.920;12.238;2022-09-06T11:37:42;19.90;99.90
21001;DHT22;10658;50.920;12.238;2022-09-06T11:41:44;19.70;99.90
21001;DHT22;10658;50.920;12.238;2022-09-06T11:45:50;19.80;99.90
21001;DHT22;10658;50.920;12.238;2022-09-06T11:49:51;20.00;99.90
21001;DHT22;10658;50.920;12.238;2022-09-06T11:58:01;20.40;99.90
21001;DHT22;10658;50.920;12.238;2022-09-06T12:02:36;20.50;99.90
21001;DHT22;10658;50.920;12.238;2022-09-06T12:06:42;20.60;99.90
21001;DHT22;10658;50.920;12.238;2022-09-06T12:11:20;20.60;99.90
21001;DHT22;10658;50.920;12.238;2022-09-06T12:15:28;20.50;99.90
21001;DHT22;10658;50.920;12.238;2022-09-06T12:23:41;20.10;99.90
21001;DHT22;10658;50.920;12.238;2022-09-06T12:27:55;19.90;99.90
21001;DHT22;10658;50.920;12.238;2022-09-06T12:31:58;19.80;99.90
21001;DHT22;10658;50.920;12.238;2022-09-06T12:36:19;19.60;99.90
21001;DHT22;10658;50.920;12.238;2022-09-06T12:40:25;19.70;99.90
21001;DHT22;10658;50.920;12.238;2022-09-06T12:44:37;19.90;99.90
21001;DHT22;10658;50.920;12.238;2022-09-06T12:48:38;20.10;99.90
21001;DHT22;10658;50.920;12.238;2022-09-06T12:56:46;20.50;99.90
21001;DHT22;10658;50.920;12.238;2022-09-06T13:00:51;21.00;99.90
21001;DHT22;10658;50.920;12.238;2022-09-06T13:05:05;21.70;99.90
21001;DHT22;10658;50.920;12.238;2022-09-06T13:09:10;22.60;99.90
21001;DHT22;10658;50.920;12.238;2022-09-06T13:13:22;23.50;99.90
21001;DHT22;10658;50.920;12.238;2022-09-06T13:17:29;24.10;99.90
21001;DHT22;10658;50.920;12.238;2022-09-06T13:21:31;24.70;99.90
21001;DHT22;10658;50.920;12.238;2022-09-06T13:25:55;25.30;99.90
21001;DHT22;10658;50.920;12.238;2022-09-06T13:30:00;25.30;99.90
21001;DHT22;10658;50.920;12.238;2022-09-06T13:34:01;24.70;99.90
21001;DHT22;10658;50.920;12.238;2022-09-06T13:38:21;24.40;99.90
21001;DHT22;10658;50.920;12.238;2022-09-06T13:42:31;24.40;99.90
21001;DHT22;10658;50.920;12.238;2022-09-06T13:46:34;24.50;99.90
21001;DHT22;10658;50.920;12.238;2022-09-06T13:50:40;24.50;99.90
21001;DHT22;10658;50.920;12.238;2022-09-06T13:54:41;24.40;99.90
21001;DHT22;10658;50.920;12.238;2022-09-06T14:02:59;23.90;99.90
21001;DHT22;10658;50.920;12.238;2022-09-06T14:07:02;23.90;99.90
21001;DHT22;10658;50.920;12.238;2022-09-06T14:11:03;24.00;99.90
21001;DHT22;10658;50.920;12.238;2022-09-06T14:15:05;24.40;99.90
21001;DHT22;10658;50.920;12.238;2022-09-06T14:19:06;25.00;99.90
21001;DHT22;10658;50.920;12.238;2022-09-06T14:23:07;25.40;99.90
21001;DHT22;10658;50.920;12.238;2022-09-06T14:27:08;26.00;99.90
21001;DHT22;10658;50.920;12.238;2022-09-06T14:31:16;26.20;99.90
21001;DHT22;10658;50.920;12.238;2022-09-06T14:35:17;26.10;99.90
21001;DHT22;10658;50.920;12.238;2022-09-06T14:39:18;25.90;99.90
21001;DHT22;10658;50.920;12.238;2022-09-06T14:43:19;26.00;99.90
21001;DHT22;10658;50.920;12.238;2022-09-06T14:47:20;26.10;99.90
21001;DHT22;10658;50.920;12.238;2022-09-06T14:51:22;26.40;99.90
21001;DHT22;10658;50.920;12.238;2022-09-06T14:55:23;26.60;99.90
21001;DHT22;10658;50.920;12.238;2022-09-06T14:59:24;26.70;99.90
21001;DHT22;10658;50.920;12.238;2022-09-06T15:03:25;26.70;99.90
21001;DHT22;10658;50.920;12.238;2022-09-06T15:07:27;26.60;99.90
21001;DHT22;10658;50.920;12.238;2022-09-06T15:15:30;25.90;99.90
21001;DHT22;10658;50.920;12.238;2022-09-06T15:19:32;25.50;99.90
21001;DHT22;10658;50.920;12.238;2022-09-06T15:23:35;25.00;99.90
21001;DHT22;10658;50.920;12.238;2022-09-06T15:27:36;24.70;99.90
21001;DHT22;10658;50.920;12.238;2022-09-06T15:31:40;24.40;99.90
21001;DHT22;10658;50.920;12.238;2022-09-06T15:35:42;24.00;99.90
21001;DHT22;10658;50.920;12.238;2022-09-06T15:39:43;23.80;99.90
21001;DHT22;10658;50.920;12.238;2022-09-06T15:43:46;23.50;99.90
21001;DHT22;10658;50.920;12.238;2022-09-06T15:47:47;23.30;99.90
21001;DHT22;10658;50.920;12.238;2022-09-06T15:51:48;23.00;99.90
21001;DHT22;10658;50.920;12.238;2022-09-06T15:55:57;23.00;99.90
21001;DHT22;10658;50.920;12.238;2022-09-06T15:59:58;22.90;99.90
21001;DHT22;10658;50.920;12.238;2022-09-06T16:04:00;22.80;99.90
21001;DHT22;10658;50.920;12.238;2022-09-06T16:08:05;22.70;99.90
21001;DHT22;10658;50.920;12.238;2022-09-06T16:12:07;22.60;99.90
21001;DHT22;10658;50.920;12.238;2022-09-06T16:16:10;22.40;99.90
21001;DHT22;10658;50.920;12.238;2022-09-06T16:20:12;22.20;99.90
21001;DHT22;10658;50.920;12.238;2022-09-06T16:24:13;22.10;99.90
21001;DHT22;10658;50.920;12.238;2022-09-06T16:28:15;21.90;99.90
21001;DHT22;10658;50.920;12.238;2022-09-06T16:32:16;21.80;99.90
21001;DHT22;10658;50.920;12.238;2022-09-06T16:36:18;21.70;99.90
21001;DHT22;10658;50.920;12.238;2022-09-06T16:40:19;21.60;99.90
21001;DHT22;10658;50.920;12.238;2022-09-06T16:44:20;21.60;99.90
21001;DHT22;10658;50.920;12.238;2022-09-06T16:48:21;21.50;99.90
21001;DHT22;10658;50.920;12.238;2022-09-06T16:52:23;21.50;99.90
21001;DHT22;10658;50.920;12.238;2022-09-06T16:56:29;21.40;99.90
21001;DHT22;10658;50.920;12.238;2022-09-06T17:00:33;21.30;99.90
21001;DHT22;10658;50.920;12.238;2022-09-06T17:04:34;21.30;99.90
21001;DHT22;10658;50.920;12.238;2022-09-06T17:08:36;21.20;99.90
21001;DHT22;10658;50.920;12.238;2022-09-06T17:12:36;21.10;99.90
21001;DHT22;10658;50.920;12.238;2022-09-06T17:16:38;21.00;99.90
21001;DHT22;10658;50.920;12.238;2022-09-06T17:20:59;21.00;99.90
21001;DHT22;10658;50.920;12.238;2022-09-06T17:25:05;20.80;99.90
21001;DHT22;10658;50.920;12.238;2022-09-06T17:29:07;20.60;99.90
21001;DHT22;10658;50.920;12.238;2022-09-06T17:33:09;20.50;99.90
21001;DHT22;10658;50.920;12.238;2022-09-06T17:37:10;20.30;99.90
21001;DHT22;10658;50.920;12.238;2022-09-06T17:41:19;20.20;99.90
21001;DHT22;10658;50.920;12.238;2022-09-06T17:45:20;20.10;99.90
21001;DHT22;10658;50.920;12.238;2022-09-06T17:49:22;19.90;99.90
21001;DHT22;10658;50.920;12.238;2022-09-06T17:53:24;19.80;99.90
21001;DHT22;10658;50.920;12.238;2022-09-06T17:57:25;19.80;99.90
21001;DHT22;10658;50.920;12.238;2022-09-06T18:01:28;19.70;99.90
21001;DHT22;10658;50.920;12.238;2022-09-06T18:05:29;19.50;99.90
21001;DHT22;10658;50.920;12.238;2022-09-06T18:09:34;19.50;99.90
21001;DHT22;10658;50.920;12.238;2022-09-06T18:13:36;19.40;99.90
21001;DHT22;10658;50.920;12.238;2022-09-06T18:17:38;19.20;99.90
21001;DHT22;10658;50.920;12.238;2022-09-06T18:21:39;19.20;99.90
21001;DHT22;10658;50.920;12.238;2022-09-06T18:25:40;19.10;99.90
21001;DHT22;10658;50.920;12.238;2022-09-06T18:29:41;19.10;99.90
21001;DHT22;10658;50.920;12.238;2022-09-06T18:33:42;19.00;99.90
21001;DHT22;10658;50.920;12.238;2022-09-06T18:37:45;18.90;99.90
21001;DHT22;10658;50.920;12.238;2022-09-06T18:41:46;18.80;99.90
21001;DHT22;10658;50.920;12.238;2022-09-06T18:50:02;18.80;99.90
21001;DHT22;10658;50.920;12.238;2022-09-06T18:54:04;18.80;99.90
21001;DHT22;10658;50.920;12.238;2022-09-06T18:58:06;18.70;99.90
21001;DHT22;10658;50.920;12.238;2022-09-06T19:02:07;18.60;99.90
21001;DHT22;10658;50.920;12.238;2022-09-06T19:06:11;18.50;99.90
21001;DHT22;10658;50.920;12.238;2022-09-06T19:10:12;18.40;99.90
21001;DHT22;10658;50.920;12.238;2022-09-06T19:14:13;18.40;99.90
21001;DHT22;10658;50.920;12.238;2022-09-06T19:18:14;18.40;99.90
21001;DHT22;10658;50.920;12.238;2022-09-06T19:22:15;18.30;99.90
21001;DHT22;10658;50.920;12.238;2022-09-06T19:26:18;18.20;99.90
21001;DHT22;10658;50.920;12.238;2022-09-06T19:30:20;18.00;99.90
21001;DHT22;10658;50.920;12.238;2022-09-06T19:34:21;17.80;99.90
21001;DHT22;10658;50.920;12.238;2022-09-06T19:38:22;17.90;99.90
21001;DHT22;10658;50.920;12.238;2022-09-06T19:42:23;17.80;99.90
21001;DHT22;10658;50.920;12.238;2022-09-06T19:46:25;17.80;99.90
21001;DHT22;10658;50.920;12.238;2022-09-06T19:50:26;17.80;99.90
21001;DHT22;10658;50.920;12.238;2022-09-06T19:54:28;17.80;99.90
21001;DHT22;10658;50.920;12.238;2022-09-06T19:58:29;17.80;99.90
21001;DHT22;10658;50.920;12.238;2022-09-06T20:02:30;17.80;99.90
21001;DHT22;10658;50.920;12.238;2022-09-06T20:06:32;17.70;99.90
21001;DHT22;10658;50.920;12.238;2022-09-06T20:10:33;17.70;99.90
21001;DHT22;10658;50.920;12.238;2022-09-06T20:14:34;17.60;99.90
21001;DHT22;10658;50.920;12.238;2022-09-06T20:18:35;17.60;99.90
21001;DHT22;10658;50.920;12.238;2022-09-06T20:22:37;17.40;99.90
21001;DHT22;10658;50.920;12.238;2022-09-06T20:26:38;17.40;99.90
21001;DHT22;10658;50.920;12.238;2022-09-06T20:30:44;17.30;99.90
21001;DHT22;10658;50.920;12.238;2022-09-06T20:34:45;17.20;99.90
21001;DHT22;10658;50.920;12.238;2022-09-06T20:38:47;17.20;99.90
21001;DHT22;10658;50.920;12.238;2022-09-06T20:42:48;17.20;99.90
21001;DHT22;10658;50.920;12.238;2022-09-06T20:46:49;17.20;99.90
21001;DHT22;10658;50.920;12.238;2022-09-06T20:50:58;17.10;99.90
21001;DHT22;10658;50.920;12.238;2022-09-06T20:55:00;17.10;99.90
21001;DHT22;10658;50.920;12.238;2022-09-06T20:59:03;17.00;99.90
21001;DHT22;10658;50.920;12.238;2022-09-06T21:03:05;16.90;99.90
21001;DHT22;10658;50.920;12.238;2022-09-06T21:07:07;16.90;99.90
21001;DHT22;10658;50.920;12.238;2022-09-06T21:11:09;16.90;99.90
21001;DHT22;10658;50.920;12.238;2022-09-06T21:15:10;16.80;99.90
21001;DHT22;10658;50.920;12.238;2022-09-06T21:19:11;16.70;99.90
21001;DHT22;10658;50.920;12.238;2022-09-06T21:23:12;16.50;99.90
21001;DHT22;10658;50.920;12.238;2022-09-06T21:27:13;16.40;99.90
21001;DHT22;10658;50.920;12.238;2022-09-06T21:31:21;16.40;99.90
21001;DHT22;10658;50.920;12.238;2022-09-06T21:35:23;16.50;99.90
21001;DHT22;10658;50.920;12.238;2022-09-06T21:39:24;16.60;99.90
21001;DHT22;10658;50.920;12.238;2022-09-06T21:43:26;16.50;99.90
21001;DHT22;10658;50.920;12.238;2022-09-06T21:47:28;16.50;99.90
21001;DHT22;10658;50.920;12.238;2022-09-06T21:51:32;16.40;99.90
21001;DHT22;10658;50.920;12.238;2022-09-06T21:55:33;16.30;99.90
21001;DHT22;10658;50.920;12.238;2022-09-06T21:59:34;16.30;99.90
21001;DHT22;10658;50.920;12.238;2022-09-06T22:03:37;16.20;99.90
21001;DHT22;10658;50.920;12.238;2022-09-06T22:07:40;16.30;99.90
21001;DHT22;10658;50.920;12.238;2022-09-06T22:11:43;16.10;99.90
21001;DHT22;10658;50.920;12.238;2022-09-06T22:15:45;16.00;99.90
21001;DHT22;10658;50.920;12.238;2022-09-06T22:19:47;16.00;99.90
21001;DHT22;10658;50.920;12.238;2022-09-06T22:24:00;16.10;99.90
21001;DHT22;10658;50.920;12.238;2022-09-06T22:28:02;16.10;99.90
21001;DHT22;10658;50.920;12.238;2022-09-06T22:32:03;16.10;99.90
21001;DHT22;10658;50.920;12.238;2022-09-06T22:36:05;16.10;99.90
21001;DHT22;10658;50.920;12.238;2022-09-06T22:40:08;16.00;99.90
21001;DHT22;10658;50.920;12.238;2022-09-06T22:44:10;15.90;99.90
21001;DHT22;10658;50.920;12.238;2022-09-06T22:48:12;15.90;99.90
21001;DHT22;10658;50.920;12.238;2022-09-06T22:52:13;15.90;99.90
21001;DHT22;10658;50.920;12.238;2022-09-06T22:56:15;15.90;99.90
21001;DHT22;10658;50.920;12.238;2022-09-06T23:00:16;15.80;99.90
21001;DHT22;10658;50.920;12.238;2022-09-06T23:04:18;15.80;99.90
21001;DHT22;10658;50.920;12.238;2022-09-06T23:08:19;15.70;99.90
21001;DHT22;10658;50.920;12.238;2022-09-06T23:12:21;15.70;99.90
21001;DHT22;10658;50.920;12.238;2022-09-06T23:16:24;15.70;99.90
21001;DHT22;10658;50.920;12.238;2022-09-06T23:20:24;15.80;99.90
21001;DHT22;10658;50.920;12.238;2022-09-06T23:24:48;15.80;99.90
21001;DHT22;10658;50.920;12.238;2022-09-06T23:28:50;15.60;99.90
21001;DHT22;10658;50.920;12.238;2022-09-06T23:32:56;15.50;99.90
21001;DHT22;10658;50.920;12.238;2022-09-06T23:36:57;15.50;99.90
21001;DHT22;10658;50.920;12.238;2022-09-06T23:41:00;15.40;99.90
21001;DHT22;10658;50.920;12.238;2022-09-06T23:45:01;15.40;99.90
21001;DHT22;10658;50.920;12.238;2022-09-06T23:49:03;15.30;99.90
21001;DHT22;10658;50.920;12.238;2022-09-06T23:53:05;15.20;99.90
21001;DHT22;10658;50.920;12.238;2022-09-06T23:57:06;15.20;99.90
